Time;durP1;ratioP1;P1;durP2;ratioP2;P2;SDS_P1;SDS_P2;PMS_P1;PMS_P2;Temp;Humidity;BMP_temperature;BMP_pressure;BME280_temperature;BME280_humidity;BME280_pressure;Samples;Min_cycle;Max_cycle;Signal;HPM_P1;HPM_P2
2023/10/30 07:04:59;;;;;;;;;0.00;0.00;;;;;23.58;44.28;99616.81;4966220;23;45498;-80
2023/10/30 07:07:24;;;;;;;;;0.00;0.00;;;;;23.70;44.39;99635.50;4865034;29;45270;-82
2023/10/30 07:09:50;;;;;;;;;0.00;0.00;;;;;23.70;44.64;99638.16;4881348;29;46894;-81
2023/10/30 07:12:15;;;;;;;;;0.00;0.00;;;;;23.55;44.54;99631.34;4879139;29;45425;-76
2023/10/30 07:14:40;;;;;;;;;1.00;0.00;;;;;23.58;44.35;99636.22;4880839;29;45392;-79
2023/10/30 07:17:06;;;;;;;;;1.00;0.00;;;;;23.59;44.15;99626.41;4880322;29;45477;-78
2023/10/30 07:19:31;;;;;;;;;1.00;0.67;;;;;23.70;44.29;99652.25;4880333;29;46226;-75
2023/10/30 07:21:56;;;;;;;;;3.00;0.00;;;;;23.59;44.16;99637.03;4879650;29;45491;-74
2023/10/30 07:24:22;;;;;;;;;0.00;0.00;;;;;23.59;44.76;99629.91;4879112;29;45475;-75
2023/10/30 07:26:47;;;;;;;;;0.00;0.00;;;;;23.64;44.50;99634.53;4879911;29;48597;-76
2023/10/30 07:29:12;;;;;;;;;0.67;0.67;;;;;23.65;44.39;99636.16;4879845;29;45399;-87
2023/10/30 07:31:38;;;;;;;;;1.00;1.00;;;;;23.55;44.52;99622.59;4881147;29;45335;-79
2023/10/30 07:34:03;;;;;;;;;0.00;0.00;;;;;23.69;44.22;99645.31;4880875;29;45394;-77
2023/10/30 07:36:29;;;;;;;;;2.00;1.00;;;;;23.55;44.64;99622.59;4880276;29;45819;-78
2023/10/30 07:38:54;;;;;;;;;0.00;0.00;;;;;23.69;44.38;99647.16;4880658;29;46240;-79
2023/10/30 07:41:20;;;;;;;;;0.00;0.00;;;;;23.56;44.18;99629.50;4880257;29;45591;-79
2023/10/30 07:43:47;;;;;;;;;0.00;0.00;;;;;23.70;44.49;99660.22;4880778;29;45616;-79
2023/10/30 07:46:13;;;;;;;;;1.67;0.67;;;;;23.57;44.51;99641.75;4880822;29;45577;-79
2023/10/30 07:48:39;;;;;;;;;0.00;0.00;;;;;23.62;44.51;99645.38;4879299;29;46253;-80
2023/10/30 07:51:04;;;;;;;;;0.67;0.67;;;;;23.63;44.73;99654.13;4880124;29;45488;-79
2023/10/30 07:53:30;;;;;;;;;2.00;0.00;;;;;23.37;44.26;99616.19;4881530;29;45790;-83
2023/10/30 07:55:56;;;;;;;;;0.00;0.00;;;;;23.70;44.44;99657.56;4882011;29;45377;-84
2023/10/30 07:58:22;;;;;;;;;0.00;0.00;;;;;23.57;44.39;99636.44;4881707;29;45307;-84
2023/10/30 08:00:47;;;;;;;;;1.67;0.00;;;;;23.71;44.87;99653.03;4881526;29;45399;-83
2023/10/30 08:03:14;;;;;;;;;0.00;0.00;;;;;23.67;44.31;99651.88;4880565;29;45426;-83
2023/10/30 08:05:40;;;;;;;;;0.00;0.00;;;;;23.61;44.54;99640.28;4881647;29;45409;-83
2023/10/30 08:08:06;;;;;;;;;0.00;0.00;;;;;23.68;44.63;99651.63;4881026;29;47212;-83
2023/10/30 08:10:31;;;;;;;;;2.00;0.00;;;;;23.56;44.64;99629.50;4881216;29;45284;-83
2023/10/30 08:12:57;;;;;;;;;0.67;0.67;;;;;23.61;44.56;99634.97;4881371;29;45373;-83
2023/10/30 08:15:22;;;;;;;;;0.00;0.00;;;;;23.59;44.73;99629.91;4881249;29;45416;-83
2023/10/30 08:17:47;;;;;;;;;0.00;0.00;;;;;23.65;44.35;99633.50;4881038;29;46046;-84
2023/10/30 08:20:13;;;;;;;;;0.00;0.00;;;;;23.60;44.60;99620.09;4881652;29;45397;-84
2023/10/30 08:22:38;;;;;;;;;0.33;0.00;;;;;23.70;44.67;99638.97;4881453;29;45384;-83
2023/10/30 08:25:04;;;;;;;;;1.00;1.00;;;;;23.64;44.46;99618.59;4880985;29;45456;-83
2023/10/30 08:27:30;;;;;;;;;0.00;0.00;;;;;23.71;44.15;99629.97;4881000;29;47309;-83
2023/10/30 08:29:56;;;;;;;;;1.00;0.00;;;;;23.72;44.55;99626.28;4881199;29;45614;-83
2023/10/30 08:32:21;;;;;;;;;0.00;0.00;;;;;23.58;44.59;99609.66;4880673;29;45411;-83
2023/10/30 08:34:46;;;;;;;;;0.00;0.00;;;;;23.70;44.54;99630.19;4880858;29;45513;-83
2023/10/30 08:37:11;;;;;;;;;0.00;0.00;;;;;23.65;44.65;99619.41;4880939;29;47311;-82
2023/10/30 08:39:37;;;;;;;;;0.67;0.67;;;;;23.72;44.34;99626.28;4880958;29;45439;-83
2023/10/30 08:42:03;;;;;;;;;0.00;0.00;;;;;23.68;44.53;99617.13;4881234;29;45526;-82
2023/10/30 08:44:31;;;;;;;;;1.00;1.00;;;;;23.73;44.43;99622.56;4880905;29;45942;-83
2023/10/30 08:46:56;;;;;;;;;0.67;0.67;;;;;23.73;44.36;99614.59;4879998;29;46071;-83
2023/10/30 08:49:21;;;;;;;;;0.00;0.00;;;;;23.63;44.46;99593.06;4880543;29;45348;-83
2023/10/30 08:51:47;;;;;;;;;1.00;0.00;;;;;23.73;44.46;99606.66;4880641;29;48395;-83
2023/10/30 08:54:13;;;;;;;;;0.67;0.00;;;;;23.70;44.72;99608.94;4880830;29;45482;-82
2023/10/30 08:56:39;;;;;;;;;1.00;0.00;;;;;23.73;44.90;99608.50;4880502;29;46577;-83
2023/10/30 08:59:04;;;;;;;;;0.00;0.00;;;;;23.63;44.59;99603.69;4880834;29;45419;-84
2023/10/30 09:01:31;;;;;;;;;0.33;0.00;;;;;23.48;44.71;99580.13;4880301;29;45518;-83
2023/10/30 09:03:57;;;;;;;;;0.00;0.00;;;;;23.72;44.35;99612.19;4880446;29;45481;-83
2023/10/30 09:06:22;;;;;;;;;2.00;0.33;;;;;23.62;44.41;99589.63;4880160;29;46827;-82
2023/10/30 09:08:47;;;;;;;;;1.00;0.67;;;;;23.71;44.65;99600.75;4880781;29;45326;-82
2023/10/30 09:11:13;;;;;;;;;1.00;0.00;;;;;23.72;44.60;99597.06;4880574;29;45321;-82
2023/10/30 09:13:38;;;;;;;;;1.33;0.00;;;;;23.57;44.73;99581.53;4881236;29;45487;-82
2023/10/30 09:16:05;;;;;;;;;0.00;0.00;;;;;23.36;44.38;99553.53;4883698;29;45660;-82
2023/10/30 09:18:30;;;;;;;;;1.67;0.00;;;;;23.72;44.72;99620.16;4883871;29;45467;-83
2023/10/30 09:20:55;;;;;;;;;1.00;1.00;;;;;23.71;44.30;99611.38;4883875;29;45379;-83
2023/10/30 09:23:21;;;;;;;;;0.00;0.00;;;;;23.61;44.63;99595.97;4883825;29;45403;-83
2023/10/30 09:25:48;;;;;;;;;0.00;0.00;;;;;23.72;44.95;99609.53;4883410;29;50096;-82
2023/10/30 09:28:13;;;;;;;;;1.00;1.00;;;;;23.63;44.71;99598.38;4883574;29;45299;-82
2023/10/30 09:30:39;;;;;;;;;1.00;1.00;;;;;23.59;44.58;99591.91;4882147;29;45703;-82
2023/10/30 09:33:04;;;;;;;;;1.00;1.00;;;;;23.62;44.85;99602.09;4883455;29;45341;-82
2023/10/30 09:35:31;;;;;;;;;0.67;0.00;;;;;23.72;44.63;99620.97;4883550;29;46092;-82
2023/10/30 09:37:57;;;;;;;;;0.00;0.00;;;;;23.71;44.94;99619.34;4883572;29;45375;-82
2023/10/30 09:40:26;;;;;;;;;0.00;0.00;;;;;23.70;44.84;99617.72;4883831;29;45354;-82
2023/10/30 09:42:52;;;;;;;;;2.00;0.00;;;;;23.73;44.40;99609.28;4883560;29;45321;-82
2023/10/30 09:45:24;;;;;;;;;3.00;0.33;;;;;23.72;44.35;99620.16;4882963;29;47010;-82
2023/10/30 09:47:55;;;;;;;;;3.00;0.50;;;;;23.70;44.89;99608.94;4882425;29;45495;-82
2023/10/30 09:50:22;;;;;;;;;1.00;0.00;;;;;23.69;44.59;99612.63;4883908;29;45261;-82
2023/10/30 09:52:49;;;;;;;;;1.00;0.33;;;;;23.55;44.38;99583.56;4883413;29;45501;-82
2023/10/30 09:55:19;;;;;;;;;2.67;0.00;;;;;23.73;44.64;99619.91;4883159;29;46982;-82
2023/10/30 09:57:49;;;;;;;;;1.33;0.00;;;;;23.45;44.53;99583.22;4883453;29;45296;-82
2023/10/30 10:00:17;;;;;;;;;0.33;0.33;;;;;23.69;44.67;99618.75;4882965;29;45404;-82
2023/10/30 10:02:43;;;;;;;;;1.00;0.00;;;;;23.74;44.70;99626.03;4883357;29;45261;-82
2023/10/30 10:05:09;;;;;;;;;1.00;1.00;;;;;23.74;44.52;99615.44;4883289;29;45923;-83
2023/10/30 10:07:35;;;;;;;;;1.00;1.00;;;;;23.74;44.57;99610.13;4882868;29;45305;-82
2023/10/30 10:10:05;;;;;;;;;1.33;1.00;;;;;23.74;44.34;99610.94;4883064;29;45231;-82
2023/10/30 10:12:33;;;;;;;;;0.67;0.00;;;;;23.74;44.63;99605.63;4883507;29;45420;-82
2023/10/30 10:14:59;;;;;;;;;0.33;0.00;;;;;23.73;44.58;99603.19;4882813;29;45336;-81
2023/10/30 10:17:24;;;;;;;;;1.67;1.00;;;;;23.74;44.46;99608.28;4883729;29;45397;-82
2023/10/30 10:19:50;;;;;;;;;1.00;1.00;;;;;23.63;44.83;99591.22;4884767;29;45388;-82
2023/10/30 10:22:29;;;;;;;;;2.00;1.00;;;;;23.76;44.39;99602.72;4883110;29;45583;-82
2023/10/30 10:24:55;;;;;;;;;2.00;1.00;;;;;23.72;44.81;99604.22;4882300;29;45437;-82
2023/10/30 10:27:22;;;;;;;;;1.33;1.00;;;;;23.75;44.76;99606.44;4882755;29;45349;-82
2023/10/30 10:29:54;;;;;;;;;1.00;1.00;;;;;23.65;44.42;99584.91;4883655;29;45377;-82
2023/10/30 10:32:27;;;;;;;;;0.00;0.00;;;;;23.73;44.78;99593.38;4882987;29;45324;-82
2023/10/30 10:34:55;;;;;;;;;0.33;0.00;;;;;23.77;44.62;99593.75;4882551;29;46115;-82
2023/10/30 10:37:21;;;;;;;;;3.67;0.00;;;;;23.72;44.65;99589.09;4881052;29;45409;-81
2023/10/30 10:39:49;;;;;;;;;2.00;1.33;;;;;23.74;44.49;99576.41;4882846;29;45415;-82
2023/10/30 10:42:19;;;;;;;;;0.00;0.00;;;;;23.77;44.69;99577.00;4881486;29;45545;-82
2023/10/30 10:44:46;;;;;;;;;3.00;2.00;;;;;23.74;44.82;99572.94;4881701;29;46306;-82
2023/10/30 10:47:12;;;;;;;;;0.33;0.00;;;;;23.64;44.69;99554.88;4882206;29;45377;-81
2023/10/30 10:49:37;;;;;;;;;1.00;1.00;;;;;23.61;44.42;99552.66;4882364;29;45414;-82
2023/10/30 10:52:08;;;;;;;;;0.00;0.00;;;;;23.78;44.34;99573.31;4882579;29;45218;-82
2023/10/30 10:54:40;;;;;;;;;1.33;1.00;;;;;23.78;44.67;99565.34;4882125;29;46264;-82
2023/10/30 10:57:08;;;;;;;;;1.00;1.00;;;;;23.79;44.60;99569.59;4881864;29;45499;-82
2023/10/30 10:59:36;;;;;;;;;2.67;0.33;;;;;23.78;44.48;99560.84;4882464;29;45248;-82
2023/10/30 11:02:09;;;;;;;;;1.67;1.00;;;;;23.68;44.69;99536.66;4882391;29;45485;-81
2023/10/30 11:04:35;;;;;;;;;1.67;1.33;;;;;23.65;44.83;99515.88;4881700;29;46277;-81
2023/10/30 11:07:06;;;;;;;;;2.00;0.33;;;;;23.76;44.61;99527.59;4881750;29;45417;-82
2023/10/30 11:09:41;;;;;;;;;0.00;0.00;;;;;23.78;44.97;99525.50;4882289;29;45532;-83
2023/10/30 11:12:33;;;;;;;;;0.00;0.00;;;;;23.78;44.73;99521.03;4881714;29;45361;-82
2023/10/30 11:15:14;;;;;;;;;1.00;1.00;;;;;23.63;44.69;99484.22;4881856;29;47346;-82
2023/10/30 11:17:40;;;;;;;;;1.00;1.00;;;;;23.77;44.60;99498.13;4881919;29;45487;-82
2023/10/30 11:20:08;;;;;;;;;0.00;0.00;;;;;23.78;44.47;99507.75;4882140;29;45534;-82
2023/10/30 11:22:38;;;;;;;;;0.00;0.00;;;;;23.68;44.48;99494.19;4881904;29;45556;-83
2023/10/30 11:25:05;;;;;;;;;1.00;1.00;;;;;23.67;44.61;99490.72;4881913;29;46090;-82
2023/10/30 11:27:35;;;;;;;;;0.00;0.00;;;;;23.69;44.51;99509.88;4881513;29;45418;-82
2023/10/30 11:30:07;;;;;;;;;3.00;1.67;;;;;23.78;44.33;99525.50;4881892;29;45356;-83
2023/10/30 11:32:45;;;;;;;;;0.00;0.00;;;;;23.77;44.21;99530.00;4881570;29;45369;-83
2023/10/30 11:35:10;;;;;;;;;4.33;0.33;;;;;23.78;44.53;99536.13;4881818;29;45313;-82
2023/10/30 11:37:37;;;;;;;;;0.33;0.33;;;;;23.78;44.41;99536.94;4880652;29;45638;-82
2023/10/30 11:40:06;;;;;;;;;2.00;1.00;;;;;23.80;44.48;99547.34;4881810;29;45308;-83
2023/10/30 11:42:39;;;;;;;;;1.00;0.00;;;;;23.79;44.90;99551.84;4881300;29;45358;-83
2023/10/30 11:45:17;;;;;;;;;0.00;0.00;;;;;23.75;44.20;99540.06;4881498;29;47038;-82
2023/10/30 11:47:46;;;;;;;;;1.67;0.67;;;;;23.63;44.53;99532.81;4881624;29;45370;-82
2023/10/30 11:50:12;;;;;;;;;0.00;0.00;;;;;23.45;44.46;99495.63;4881458;29;45452;-82
2023/10/30 11:52:38;;;;;;;;;0.00;0.00;;;;;23.78;44.79;99554.72;4881429;29;45527;-82
2023/10/30 11:55:05;;;;;;;;;0.00;0.00;;;;;23.71;44.52;99536.19;4880809;29;47455;-79
2023/10/30 11:57:31;;;;;;;;;1.00;1.00;;;;;23.62;44.36;99517.94;4881428;29;45368;-82
2023/10/30 11:59:56;;;;;;;;;1.00;0.00;;;;;23.58;44.62;99494.69;4881489;29;45309;-82
2023/10/30 12:02:22;;;;;;;;;1.33;1.00;;;;;23.77;44.49;99530.00;4881602;29;45263;-82
2023/10/30 12:04:47;;;;;;;;;1.00;1.00;;;;;23.68;44.33;99518.09;4880799;29;45958;-81
2023/10/30 12:07:15;;;;;;;;;0.00;0.00;;;;;23.58;44.35;99503.47;4880888;29;49143;-81
2023/10/30 12:09:41;;;;;;;;;1.00;1.00;;;;;23.64;44.57;99509.75;4881045;29;45284;-81
2023/10/30 12:12:06;;;;;;;;;1.00;1.00;;;;;23.60;44.34;99492.66;4881275;29;45437;-82
2023/10/30 12:14:32;;;;;;;;;1.00;1.00;;;;;23.64;45.07;99483.19;4880992;29;47250;-82
2023/10/30 12:16:58;;;;;;;;;2.00;0.00;;;;;23.65;44.35;99491.97;4881449;29;45395;-83
2023/10/30 12:19:24;;;;;;;;;1.00;1.00;;;;;23.76;44.70;99528.38;4881200;29;45333;-83
2023/10/30 12:21:51;;;;;;;;;0.33;0.33;;;;;23.42;44.49;99474.88;4881004;29;45596;-83
2023/10/30 12:24:20;;;;;;;;;0.67;0.67;;;;;23.63;44.62;99510.75;4880505;29;47372;-82
2023/10/30 12:26:47;;;;;;;;;0.00;0.00;;;;;23.75;44.63;99532.09;4881162;29;45383;-82
2023/10/30 12:29:23;;;;;;;;;0.00;0.00;;;;;23.67;44.83;99519.91;4881151;29;45377;-82
2023/10/30 12:32:01;;;;;;;;;0.00;0.00;;;;;23.77;44.35;99522.03;4881086;29;45353;-82
2023/10/30 12:34:26;;;;;;;;;2.33;0.67;;;;;23.77;44.83;99515.91;4880601;29;46211;-82
2023/10/30 12:36:52;;;;;;;;;1.00;1.00;;;;;23.67;44.30;99501.34;4880696;29;45441;-81
2023/10/30 12:39:21;;;;;;;;;2.00;0.00;;;;;23.77;44.75;99511.41;4880511;29;45165;-82
2023/10/30 12:41:55;;;;;;;;;1.00;1.00;;;;;23.76;44.35;99507.13;4880936;29;45369;-82
2023/10/30 12:44:27;;;;;;;;;1.67;1.67;;;;;23.76;44.76;99493.06;4880817;29;46141;-82
2023/10/30 12:46:53;;;;;;;;;0.00;0.00;;;;;23.60;44.32;99461.56;4880850;29;45242;-81
2023/10/30 12:49:18;;;;;;;;;1.33;0.00;;;;;23.76;44.58;99483.22;4880624;29;45374;-81
2023/10/30 12:51:43;;;;;;;;;1.00;1.00;;;;;23.67;44.41;99471.31;4880873;29;45467;-82
2023/10/30 12:54:09;;;;;;;;;1.00;1.00;;;;;23.61;44.34;99457.09;4879949;29;46089;-82
2023/10/30 12:56:34;;;;;;;;;0.33;0.00;;;;;23.72;44.51;99471.44;4880780;29;45305;-82
2023/10/30 12:59:00;;;;;;;;;1.00;0.00;;;;;23.75;44.46;99465.69;4881049;29;45466;-82
2023/10/30 13:01:26;;;;;;;;;1.00;1.00;;;;;23.64;44.27;99443.38;4880611;29;45319;-82
2023/10/30 13:03:52;;;;;;;;;1.00;1.00;;;;;23.55;44.03;99424.28;4880261;29;45393;-82
2023/10/30 13:06:18;;;;;;;;;0.00;0.00;;;;;23.26;44.37;99371.75;4880165;29;45404;-83
2023/10/30 13:08:44;;;;;;;;;1.00;1.00;;;;;23.75;44.53;99449.75;4880505;29;45425;-81
2023/10/30 13:11:09;;;;;;;;;0.00;0.00;;;;;23.70;44.82;99433.69;4880401;29;45383;-82
2023/10/30 13:13:35;;;;;;;;;1.00;0.00;;;;;23.68;44.36;99427.81;4880386;29;47149;-81
2023/10/30 13:16:00;;;;;;;;;3.67;1.00;;;;;23.74;44.35;99422.38;4880292;29;45380;-81
2023/10/30 13:18:26;;;;;;;;;1.00;1.00;;;;;23.50;44.77;99397.59;4880721;29;45475;-80
2023/10/30 13:20:52;;;;;;;;;0.33;0.33;;;;;23.78;44.32;99440.53;4880531;29;45572;-81
2023/10/30 13:23:21;;;;;;;;;1.00;1.00;;;;;23.78;44.28;99424.59;4879908;29;46960;-81
2023/10/30 13:25:48;;;;;;;;;1.00;1.00;;;;;23.63;44.38;99401.91;4880226;29;45516;-81
2023/10/30 13:28:13;;;;;;;;;1.00;1.00;;;;;23.70;44.35;99420.41;4880271;29;45309;-83
2023/10/30 13:30:39;;;;;;;;;0.00;0.00;;;;;23.77;44.17;99422.97;4880463;29;45380;-82
2023/10/30 13:33:04;;;;;;;;;0.00;0.00;;;;;23.78;44.04;99429.91;4880138;29;46031;-82
2023/10/30 13:35:29;;;;;;;;;1.00;1.00;;;;;23.63;44.13;99404.56;4880064;29;45980;-81
2023/10/30 13:37:55;;;;;;;;;1.67;0.00;;;;;23.78;44.22;99429.91;4880101;29;45256;-80
2023/10/30 13:40:20;;;;;;;;;0.67;0.67;;;;;23.73;44.18;99426.06;4879516;29;45302;-76
2023/10/30 13:42:45;;;;;;;;;1.00;0.00;;;;;23.77;44.25;99439.72;4880092;29;45362;-81
2023/10/30 13:45:11;;;;;;;;;2.00;0.00;;;;;23.76;44.20;99448.72;4880197;29;45362;-81
2023/10/30 13:47:36;;;;;;;;;0.00;0.00;;;;;23.61;44.17;99419.91;4880414;29;45290;-81
2023/10/30 13:50:01;;;;;;;;;2.33;1.00;;;;;23.78;44.08;99443.19;4879931;29;48044;-81
2023/10/30 13:52:27;;;;;;;;;0.00;0.00;;;;;23.72;43.80;99437.75;4878169;29;47258;-82
2023/10/30 13:54:52;;;;;;;;;1.00;1.00;;;;;23.78;44.06;99429.91;4879889;29;45243;-81
2023/10/30 13:57:21;;;;;;;;;0.00;0.00;;;;;23.77;44.15;99430.94;4881020;29;45352;-80
2023/10/30 13:59:47;;;;;;;;;0.00;0.00;;;;;23.66;44.44;99403.31;4881140;29;45418;-81
2023/10/30 14:02:13;;;;;;;;;0.67;0.67;;;;;23.78;44.30;99427.25;4882770;29;45359;-82
2023/10/30 14:04:38;;;;;;;;;0.00;0.00;;;;;23.77;44.47;99423.78;4882935;29;45451;-82
2023/10/30 14:07:04;;;;;;;;;4.00;1.00;;;;;23.65;44.38;99413.13;4882558;29;45582;-82
2023/10/30 14:09:30;;;;;;;;;1.00;0.00;;;;;23.73;43.81;99447.31;4883528;29;45546;-81
2023/10/30 14:11:55;;;;;;;;;1.67;1.00;;;;;23.78;44.13;99448.50;4883329;29;45522;-82
2023/10/30 14:14:21;;;;;;;;;0.33;0.00;;;;;23.72;44.21;99437.75;4882966;29;45414;-81
2023/10/30 14:16:46;;;;;;;;;1.00;1.00;;;;;23.61;44.11;99422.56;4883070;29;45731;-81
2023/10/30 14:19:12;;;;;;;;;0.00;0.00;;;;;23.56;44.07;99411.81;4883459;29;45376;-82
2023/10/30 14:21:38;;;;;;;;;0.33;0.00;;;;;23.60;44.46;99405.81;4883414;29;45564;-81
2023/10/30 14:24:07;;;;;;;;;0.33;0.00;;;;;23.45;44.48;99392.13;4883923;29;45444;-81
2023/10/30 14:26:33;;;;;;;;;2.00;2.00;;;;;23.61;44.37;99411.94;4883078;29;45320;-81
2023/10/30 14:28:58;;;;;;;;;1.00;1.00;;;;;23.75;44.25;99433.81;4883719;29;45476;-81
2023/10/30 14:31:23;;;;;;;;;0.00;0.00;;;;;23.69;44.13;99414.28;4883510;29;45321;-83
2023/10/30 14:33:48;;;;;;;;;0.00;0.00;;;;;23.73;44.37;99412.78;4883522;29;45353;-82
2023/10/30 14:36:14;;;;;;;;;0.00;0.00;;;;;23.63;44.27;99397.41;4883015;29;45353;-84
2023/10/30 14:38:39;;;;;;;;;0.00;0.00;;;;;23.56;44.29;99379.97;4882599;29;49989;-81
2023/10/30 14:41:04;;;;;;;;;1.00;0.00;;;;;23.50;44.26;99382.47;4882571;29;48156;-81
2023/10/30 14:43:30;;;;;;;;;0.00;0.00;;;;;23.68;44.47;99415.31;4882424;29;45344;-81
2023/10/30 14:45:55;;;;;;;;;0.67;0.33;;;;;23.70;44.59;99423.88;4881778;29;45435;-82
2023/10/30 14:48:21;;;;;;;;;0.00;0.00;;;;;23.62;44.46;99422.38;4882534;29;50986;-81
2023/10/30 14:50:46;;;;;;;;;0.33;0.00;;;;;23.72;44.59;99448.38;4882142;29;47428;-81
2023/10/30 14:53:11;;;;;;;;;0.00;0.00;;;;;23.72;44.15;99451.03;4882751;29;45558;-81
2023/10/30 14:55:37;;;;;;;;;4.00;1.00;;;;;23.65;44.14;99431.72;4882202;29;51417;-81
2023/10/30 14:58:02;;;;;;;;;1.00;1.00;;;;;23.73;44.22;99436.69;4882781;29;45392;-82
2023/10/30 15:00:27;;;;;;;;;0.33;0.33;;;;;23.62;44.04;99418.88;4881176;29;47123;-82
2023/10/30 15:02:53;;;;;;;;;0.00;0.00;;;;;23.68;44.14;99443.75;4882142;29;45278;-82
2023/10/30 15:05:18;;;;;;;;;0.00;0.00;;;;;23.59;44.63;99430.78;4882212;29;45231;-82
2023/10/30 15:07:43;;;;;;;;;0.00;0.00;;;;;23.71;44.13;99445.91;4882414;29;45424;-81
2023/10/30 15:10:09;;;;;;;;;1.00;1.00;;;;;23.72;44.27;99444.91;4882302;29;46370;-82
2023/10/30 15:12:34;;;;;;;;;0.33;0.33;;;;;23.70;44.44;99442.47;4879666;29;45280;-81
2023/10/30 15:15:00;;;;;;;;;0.00;0.00;;;;;23.67;44.18;99442.91;4882183;29;45340;-81
2023/10/30 15:17:25;;;;;;;;;0.00;0.00;;;;;23.65;44.30;99438.88;4882446;29;45358;-81
2023/10/30 15:19:50;;;;;;;;;1.00;1.00;;;;;23.69;44.49;99450.66;4881588;29;59449;-82
2023/10/30 15:22:17;;;;;;;;;2.00;0.00;;;;;23.61;44.22;99436.66;4882247;29;45245;-81
2023/10/30 15:24:42;;;;;;;;;0.00;0.00;;;;;23.55;44.07;99432.25;4882145;29;45377;-81
2023/10/30 15:27:13;;;;;;;;;0.33;0.00;;;;;23.54;44.17;99437.78;4881846;29;45348;-81
2023/10/30 15:29:39;;;;;;;;;1.00;1.00;;;;;23.62;44.57;99459.53;4881930;29;47192;-81
2023/10/30 15:32:04;;;;;;;;;2.00;1.00;;;;;23.54;44.31;99446.56;4881817;29;45332;-82
2023/10/30 15:34:30;;;;;;;;;1.00;1.00;;;;;23.69;44.42;99470.06;4881930;29;45438;-81
2023/10/30 15:36:55;;;;;;;;;0.00;0.00;;;;;23.69;44.49;99472.72;4881851;29;46812;-80
2023/10/30 15:39:20;;;;;;;;;0.33;0.33;;;;;23.62;44.03;99454.22;4881349;29;59978;-80
2023/10/30 15:41:46;;;;;;;;;1.00;1.00;;;;;23.68;44.29;99467.63;4881718;29;48476;-81
2023/10/30 15:44:11;;;;;;;;;0.00;0.00;;;;;23.46;43.93;99439.69;4881998;29;45582;-82
2023/10/30 15:46:36;;;;;;;;;1.00;1.00;;;;;23.58;43.99;99463.66;4880946;29;62253;-82
2023/10/30 15:49:02;;;;;;;;;1.00;1.00;;;;;23.67;44.48;99476.63;4881149;29;46307;-83
2023/10/30 15:51:27;;;;;;;;;0.00;0.00;;;;;23.28;44.32;99419.31;4881823;29;45470;-82
2023/10/30 15:53:52;;;;;;;;;1.00;1.00;;;;;23.66;44.41;99480.31;4881666;29;45482;-81
2023/10/30 15:56:18;;;;;;;;;0.00;0.00;;;;;23.68;44.17;99480.91;4881428;29;45361;-81
2023/10/30 15:58:43;;;;;;;;;0.00;0.00;;;;;23.48;44.22;99455.38;4881563;29;46993;-82
2023/10/30 16:01:08;;;;;;;;;1.00;1.00;;;;;23.54;43.95;99462.50;4881650;29;45362;-82
2023/10/30 16:03:34;;;;;;;;;1.00;1.00;;;;;23.66;44.53;99483.78;4880987;29;45376;-81
2023/10/30 16:05:59;;;;;;;;;2.00;0.00;;;;;23.66;44.41;99486.44;4881523;29;45313;-81
2023/10/30 16:08:24;;;;;;;;;1.00;1.00;;;;;23.59;44.12;99480.41;4880012;29;45894;-81
2023/10/30 16:10:50;;;;;;;;;0.00;0.00;;;;;23.49;44.13;99457.00;4881600;29;45416;-81
2023/10/30 16:13:15;;;;;;;;;0.00;0.00;;;;;23.63;44.36;99487.69;4881141;29;45310;-81
2023/10/30 16:15:41;;;;;;;;;1.33;1.00;;;;;23.67;44.52;99504.00;4881089;29;45381;-81
2023/10/30 16:18:07;;;;;;;;;1.00;1.00;;;;;23.57;44.17;99493.91;4880609;29;47309;-82
2023/10/30 16:20:32;;;;;;;;;0.33;0.00;;;;;23.67;44.23;99503.19;4881080;29;45219;-82
2023/10/30 16:22:58;;;;;;;;;0.00;0.00;;;;;23.67;44.38;99508.47;4880948;29;45391;-81
2023/10/30 16:25:23;;;;;;;;;0.67;0.00;;;;;23.58;44.41;99498.16;4881231;29;45289;-81
2023/10/30 16:27:48;;;;;;;;;1.00;1.00;;;;;23.67;44.02;99513.78;4879570;29;46954;-82
2023/10/30 16:30:16;;;;;;;;;0.00;0.00;;;;;23.66;44.24;99512.97;4881345;29;45310;-82
2023/10/30 16:32:41;;;;;;;;;1.00;0.67;;;;;23.60;44.13;99504.06;4880609;29;45491;-81
2023/10/30 16:35:07;;;;;;;;;1.00;0.00;;;;;23.56;44.43;99499.44;4880967;29;45421;-82
2023/10/30 16:37:32;;;;;;;;;1.00;1.00;;;;;23.66;43.85;99504.19;4880623;29;46223;-81
2023/10/30 16:39:57;;;;;;;;;0.67;0.33;;;;;23.66;44.60;99501.53;4880848;29;45365;-82
2023/10/30 16:42:23;;;;;;;;;0.67;0.67;;;;;23.58;44.26;99500.81;4880986;29;45352;-82
2023/10/30 16:44:50;;;;;;;;;0.00;0.00;;;;;23.49;44.07;99481.75;4880709;29;45295;-82
2023/10/30 16:47:15;;;;;;;;;0.67;0.00;;;;;23.54;44.38;99499.66;4880273;29;46400;-82
2023/10/30 16:49:41;;;;;;;;;0.33;0.00;;;;;23.64;44.39;99515.06;4880720;29;45492;-82
2023/10/30 16:52:06;;;;;;;;;1.00;1.00;;;;;23.57;44.19;99515.16;4880740;29;45378;-81
2023/10/30 16:54:31;;;;;;;;;1.00;1.00;;;;;23.47;44.19;99510.31;4880910;29;45375;-81
2023/10/30 16:56:56;;;;;;;;;2.00;0.67;;;;;23.62;44.29;99536.53;4880450;29;48881;-82
2023/10/30 16:59:22;;;;;;;;;0.33;0.00;;;;;23.62;44.11;99531.22;4880526;29;45490;-82
2023/10/30 17:01:48;;;;;;;;;1.00;1.00;;;;;23.62;44.21;99525.09;4880392;29;45874;-82
2023/10/30 17:04:14;;;;;;;;;0.00;0.00;;;;;23.49;44.25;99518.91;4880534;29;45343;-82
2023/10/30 17:06:39;;;;;;;;;0.67;0.00;;;;;23.57;44.04;99525.75;4880648;29;46242;-82
2023/10/30 17:09:04;;;;;;;;;1.00;1.00;;;;;23.46;44.20;99513.19;4881015;29;45269;-82
2023/10/30 17:11:30;;;;;;;;;1.00;1.00;;;;;23.46;44.08;99508.72;4880709;29;45348;-81
2023/10/30 17:13:55;;;;;;;;;0.00;0.00;;;;;23.57;44.14;99524.94;4880893;29;45541;-81
2023/10/30 17:16:20;;;;;;;;;0.00;0.00;;;;;23.52;44.20;99526.41;4880391;29;46886;-81
2023/10/30 17:18:46;;;;;;;;;1.67;1.00;;;;;23.60;43.91;99541.22;4881638;29;45283;-81
2023/10/30 17:21:11;;;;;;;;;1.00;1.00;;;;;23.61;43.86;99542.84;4881115;29;45476;-81
2023/10/30 17:23:37;;;;;;;;;0.00;0.00;;;;;23.60;43.94;99549.19;4880722;29;45441;-80
2023/10/30 17:26:04;;;;;;;;;1.00;1.00;;;;;23.45;44.23;99530.16;4880395;29;46233;-81
2023/10/30 17:28:30;;;;;;;;;1.00;1.00;;;;;23.59;44.09;99544.13;4880037;29;45365;-82
2023/10/30 17:30:56;;;;;;;;;2.00;1.00;;;;;23.57;44.45;99538.22;4880727;29;45262;-80
2023/10/30 17:33:21;;;;;;;;;0.67;0.67;;;;;23.62;44.05;99557.78;4880771;29;45408;-81
2023/10/30 17:35:47;;;;;;;;;2.00;1.00;;;;;23.53;44.29;99545.81;4883033;29;46912;-81
2023/10/30 17:38:13;;;;;;;;;0.00;0.00;;;;;23.62;44.22;99562.25;4883693;29;45259;-81
2023/10/30 17:40:38;;;;;;;;;0.00;0.00;;;;;23.47;43.90;99536.84;4884240;29;45338;-81
2023/10/30 17:43:04;;;;;;;;;0.67;0.67;;;;;23.61;43.87;99558.78;4883696;29;45385;-78
2023/10/30 17:45:29;;;;;;;;;1.00;0.33;;;;;23.50;44.26;99547.06;4883907;29;46168;-80
2023/10/30 17:47:54;;;;;;;;;0.33;0.33;;;;;23.60;44.04;99562.47;4883562;29;45319;-82
2023/10/30 17:50:20;;;;;;;;;3.33;1.33;;;;;23.49;44.04;99548.13;4883259;29;45357;-81
2023/10/30 17:52:47;;;;;;;;;0.00;0.00;;;;;23.60;44.14;99561.69;4883288;29;45351;-81
2023/10/30 17:55:12;;;;;;;;;0.00;0.00;;;;;23.54;44.13;99563.38;4883123;29;47482;-81
2023/10/30 17:57:37;;;;;;;;;1.00;1.00;;;;;23.60;44.32;99578.41;4882694;29;45466;-81
2023/10/30 18:00:03;;;;;;;;;1.00;1.00;;;;;23.59;44.42;99584.75;4883158;29;45349;-76
2023/10/30 18:02:29;;;;;;;;;0.33;0.33;;;;;23.43;44.45;99562.22;4883271;29;45365;-78
2023/10/30 18:04:54;;;;;;;;;0.00;0.00;;;;;23.60;44.37;99601.50;4882922;29;46040;-79
2023/10/30 18:07:20;;;;;;;;;0.33;0.33;;;;;23.59;44.42;99590.06;4882739;29;45369;-77
2023/10/30 18:09:45;;;;;;;;;1.00;1.00;;;;;23.55;43.99;99583.56;4882927;29;45453;-79
2023/10/30 18:12:11;;;;;;;;;1.00;1.00;;;;;23.59;44.34;99602.53;4882496;29;45428;-80
2023/10/30 18:14:37;;;;;;;;;2.00;1.00;;;;;23.47;44.07;99592.59;4882505;29;47419;-78
2023/10/30 18:17:02;;;;;;;;;1.00;1.00;;;;;23.59;44.12;99618.47;4882647;29;45459;-78
2023/10/30 18:19:28;;;;;;;;;1.33;1.00;;;;;23.56;43.86;99617.06;4882840;29;45416;-78
2023/10/30 18:21:53;;;;;;;;;2.00;2.00;;;;;23.47;44.26;99603.22;4882757;29;45277;-78
2023/10/30 18:24:21;;;;;;;;;1.33;1.33;;;;;23.56;44.25;99618.88;4882522;29;45325;-79
2023/10/30 18:26:50;;;;;;;;;1.00;1.00;;;;;23.54;44.19;99610.34;4882033;29;45360;-78
2023/10/30 18:29:16;;;;;;;;;2.00;0.33;;;;;23.46;44.24;99606.91;4882677;29;45284;-79
2023/10/30 18:31:41;;;;;;;;;1.00;1.00;;;;;23.47;44.06;99603.22;4882534;29;45321;-78
2023/10/30 18:34:06;;;;;;;;;1.33;1.33;;;;;23.52;43.82;99619.31;4882090;29;45981;-79